createdAt,value
2023-12-08T00:02:16.232Z,230.70
2023-12-08T00:12:19.665Z,221.30
2023-12-08T00:22:23.037Z,221.90
2023-12-08T00:32:26.834Z,223.90
2023-12-08T00:42:30.233Z,209.50
2023-12-08T00:52:33.456Z,209.30
2023-12-08T01:02:37.083Z,211.30
2023-12-08T01:12:40.782Z,198.60
2023-12-08T01:22:44.009Z,140.50
2023-12-08T01:32:47.497Z,141.50
2023-12-08T01:42:51.593Z,136.90
2023-12-08T01:52:54.774Z,147.00
2023-12-08T02:02:58.613Z,164.90
2023-12-08T02:13:02.047Z,183.30
2023-12-08T02:23:07.363Z,168.90
2023-12-08T02:33:18.659Z,152.10
2023-12-08T02:43:21.986Z,118.00
2023-12-08T02:53:25.231Z,129.30
2023-12-08T03:03:28.517Z,142.70
2023-12-08T03:13:31.892Z,162.90
2023-12-08T03:23:36.129Z,165.60
2023-12-08T03:33:39.580Z,177.90
2023-12-08T03:43:43.000Z,166.50
2023-12-08T03:53:46.433Z,165.90
2023-12-08T04:03:49.925Z,165.70
2023-12-08T04:13:53.108Z,167.00
2023-12-08T04:23:56.502Z,104.70
2023-12-08T04:34:00.059Z,88.80
2023-12-08T04:44:04.262Z,123.80
2023-12-08T04:54:07.849Z,124.80
2023-12-08T05:04:11.314Z,141.20
2023-12-08T05:14:15.413Z,151.20
2023-12-08T05:24:18.665Z,137.30
2023-12-08T05:34:22.012Z,163.70
2023-12-08T05:44:25.333Z,137.50
2023-12-08T05:54:28.780Z,122.20
2023-12-08T06:04:32.378Z,137.40
2023-12-08T06:14:35.538Z,153.40
2023-12-08T06:24:38.913Z,116.70
2023-12-08T06:34:42.212Z,122.40
2023-12-08T06:44:45.686Z,114.00
2023-12-08T06:54:50.370Z,117.50
2023-12-08T07:04:53.619Z,117.20
2023-12-08T07:14:56.779Z,117.10
2023-12-08T07:25:01.147Z,121.90
2023-12-08T07:35:05.980Z,143.10
2023-12-08T07:45:10.557Z,135.80
2023-12-08T07:55:14.014Z,144.80
2023-12-08T08:05:17.663Z,132.50
2023-12-08T08:15:21.452Z,139.40
2023-12-08T08:25:26.734Z,159.90
2023-12-08T08:35:30.041Z,163.00
2023-12-08T08:45:34.211Z,145.90
2023-12-08T08:55:37.463Z,126.40
2023-12-08T09:05:43.303Z,129.90
2023-12-08T09:15:46.716Z,142.20
2023-12-08T09:25:49.870Z,130.00
2023-12-08T09:35:53.346Z,135.00
2023-12-08T09:45:57.541Z,119.40
2023-12-08T09:56:01.999Z,218.60
2023-12-08T10:06:06.902Z,185.20
2023-12-08T10:16:11.151Z,126.00
2023-12-08T10:26:15.173Z,80.30
2023-12-08T10:36:21.673Z,60.00
2023-12-08T10:46:26.404Z,65.10
2023-12-08T10:56:29.651Z,65.60
2023-12-08T11:06:43.753Z,56.90
2023-12-08T11:17:05.671Z,61.00
2023-12-08T11:27:24.027Z,53.30
2023-12-08T11:37:30.297Z,64.40
2023-12-08T11:47:36.709Z,54.70
2023-12-08T11:58:05.537Z,56.00
2023-12-08T12:08:09.678Z,53.30
2023-12-08T12:18:15.494Z,48.30
2023-12-08T12:28:19.345Z,50.80
2023-12-08T12:38:22.634Z,48.20
2023-12-08T12:48:27.385Z,96.40
2023-12-08T12:58:30.742Z,56.60
2023-12-08T13:08:44.786Z,68.50
2023-12-08T13:18:49.888Z,46.70
2023-12-08T13:28:53.578Z,54.30
2023-12-08T13:38:56.972Z,60.80
2023-12-08T13:49:00.619Z,50.80
2023-12-08T13:59:04.229Z,46.40
2023-12-08T14:09:07.509Z,38.60
2023-12-08T14:19:11.281Z,37.20
2023-12-08T14:29:14.874Z,62.10
2023-12-08T14:39:21.320Z,53.60
2023-12-08T14:59:27.977Z,62.30
2023-12-08T15:09:32.347Z,63.00
2023-12-08T15:19:38.956Z,62.10
2023-12-08T15:29:43.991Z,72.50
2023-12-08T15:39:49.020Z,72.10
2023-12-08T15:49:52.458Z,77.80
2023-12-08T15:59:57.087Z,71.50
2023-12-08T16:10:00.475Z,69.80
2023-12-08T16:20:04.474Z,105.90
2023-12-08T16:30:09.852Z,94.40
2023-12-08T16:40:13.729Z,114.40
2023-12-08T16:50:16.891Z,104.20
2023-12-08T17:00:20.743Z,179.10
2023-12-08T17:10:24.137Z,163.10
2023-12-08T17:20:27.721Z,157.90
2023-12-08T17:30:32.188Z,195.50
2023-12-08T17:40:35.484Z,140.90
2023-12-08T17:50:39.028Z,157.30
2023-12-08T18:00:42.471Z,174.40
2023-12-08T18:10:47.722Z,180.70
2023-12-08T18:20:54.040Z,127.70
2023-12-08T18:30:57.316Z,166.50
2023-12-08T18:41:00.966Z,176.30
2023-12-08T18:51:04.913Z,175.30
2023-12-08T19:01:09.971Z,167.50
2023-12-08T19:11:15.715Z,160.60
2023-12-08T19:21:19.387Z,161.50
2023-12-08T19:31:22.907Z,144.20
2023-12-08T19:41:28.354Z,175.60
2023-12-08T19:51:31.890Z,149.80
2023-12-08T20:01:35.083Z,177.10
2023-12-08T20:11:41.296Z,157.80
2023-12-08T20:21:45.284Z,157.90
2023-12-08T20:31:49.644Z,142.30
2023-12-08T20:41:53.034Z,155.70
2023-12-08T20:51:56.405Z,158.40
2023-12-08T21:01:59.790Z,189.20
2023-12-08T21:12:04.974Z,173.70
2023-12-08T21:22:08.336Z,188.00
2023-12-08T21:32:12.054Z,189.40
2023-12-08T21:42:15.837Z,180.90
2023-12-08T21:52:19.327Z,146.00
2023-12-08T22:02:22.905Z,191.30
2023-12-08T22:12:26.248Z,162.10
2023-12-08T22:22:32.460Z,176.40
2023-12-08T22:32:36.073Z,174.70
2023-12-08T22:42:39.559Z,178.30
2023-12-08T22:52:42.940Z,148.80
2023-12-08T23:02:46.342Z,181.70
2023-12-08T23:12:49.551Z,175.60
2023-12-08T23:22:52.801Z,136.70
2023-12-08T23:32:56.043Z,139.40
2023-12-08T23:42:59.502Z,147.40
2023-12-08T23:53:02.728Z,126.50
